Atterbury, IL

11:29 AM CDT on March 29, 2015 (GMT -0500)
Toboggan Hill | | Change Station
CLOSE
Current Station
Personal Weather Station
Location: Petersburg, IL
Elevation: 614 ft
Nearby Weather Stations

Elev 614 ft 40.01 °N, 89.86 °W | Updated 0 second ago

Overcast
Overcast
40.6 °F
Feels Like 36 °F
N
7.6
Wind Variable Wind from SE
Gusts 12.1 mph

Today
High -- | Low -- °F
--% Chance of Precip.
Yesterday
High -- | Low -- °F
Precip. -- in
6:48 AM 7:20 PM
Waxing Gibbous, 72% visible
Pressure 30.08 in
Visibility 10.0 miles
Clouds Few 5000 ft
Overcast 9000 ft
Windchill 36 °F
Dew Point 28 °F
Humidity 60%
Rainfall 0.04 in
Snow Depth Not available.
UV 2 out of 12
Pollen 5.30 out of 12
Air Quality Not available.
Flu Activity Not available.
METAR KSPI 291552Z 18017KT 10SM -RA FEW050 OVC090 03/M03 A3007 RMK AO2 PK WND 18030/1509 RAB07 SLP186 P0000 T00331033

More Conditions Fewer Conditions

Pressure 30.08 in
Visibility 10.0 miles
Clouds Few 5000 ft
Overcast 9000 ft
Windchill 36 °F
Dew Point 28 °F
Humidity 60%
Rainfall 0.04 in
Snow Depth Not available.
UV 2 out of 12
Pollen 5.30 out of 12
Air Quality Not available.
Flu Activity Not available.
METAR KSPI 291552Z 18017KT 10SM -RA FEW050 OVC090 03/M03 A3007 RMK AO2 PK WND 18030/1509 RAB07 SLP186 P0000 T00331033

More Conditions Fewer Conditions

10-Day Weather Forecast

Almanac

Astronomy

Mar. 29, 2015 Rise Set
Actual Time
Civil Twilight
Nautical Twilight
Astronomical Twilight
Moon
Length of Visible Light
Length of Day
Tomorrow will be .
, % of the Moon is Illuminated

Today's Extremes

State Highs State Lows

Community

WunderPhotos

Upload Photos

1,809,284 photos uploaded!

WunderBlogs® & News

Nearby

Air Quality

  Air Quality AQ Index Pollutant
Not available.

Snow Depth

Station Depth Elevation

Earthquake Activity

City Distance Mag. Time & Date
Minimum magnitude displayed is 2.5.

Coastal Water Temperatures

Place Temperature

Stations

Nearby Weather Stations

Station Location Temp. Windchill Dew Point Humidity Wind Precip. Elev Updated Type